Time;durP1;ratioP1;P1;durP2;ratioP2;P2;SDS_P1;SDS_P2;PMS_P1;PMS_P2;Temp;Humidity;BMP_temperature;BMP_pressure;BME280_temperature;BME280_humidity;BME280_pressure;Samples;Min_cycle;Max_cycle;Signal;HPM_P1;HPM_P2
2021/03/24 00:00:38;;;;;;;49.95;26.83;;;7.60;99.90;;;;;;4119374;28;20035;-69
2021/03/24 00:02:39;;;;;;;50.75;26.15;;;7.60;99.90;;;;;;4134335;28;20030;-68
2021/03/24 00:04:39;;;;;;;46.92;26.65;;;7.50;99.90;;;;;;4133910;28;20097;-68
2021/03/24 00:06:41;;;;;;;48.58;27.17;;;7.50;99.90;;;;;;4134928;28;20046;-68
2021/03/24 00:08:42;;;;;;;50.67;28.40;;;7.50;99.90;;;;;;4135663;28;20050;-68
2021/03/24 00:10:43;;;;;;;53.90;28.98;;;7.50;99.90;;;;;;4141540;28;20045;-69
2021/03/24 00:12:43;;;;;;;50.33;27.70;;;7.50;99.90;;;;;;4133418;28;20043;-68
2021/03/24 00:14:47;;;;;;;55.38;28.55;;;7.50;99.90;;;;;;4133445;28;20034;-68
2021/03/24 00:16:48;;;;;;;55.13;30.02;;;7.50;99.90;;;;;;4142366;28;20117;-68
2021/03/24 00:18:49;;;;;;;57.20;30.25;;;7.50;99.90;;;;;;4133072;28;20038;-68
2021/03/24 00:20:51;;;;;;;59.00;30.55;;;7.50;99.90;;;;;;4135167;28;20044;-68
2021/03/24 00:22:52;;;;;;;54.30;28.63;;;7.50;99.90;;;;;;4139860;28;20038;-68
2021/03/24 00:24:53;;;;;;;60.63;30.55;;;7.50;99.90;;;;;;4126583;28;20080;-68
2021/03/24 00:26:54;;;;;;;54.00;27.98;;;7.40;99.90;;;;;;4135155;28;20056;-68
2021/03/24 00:28:54;;;;;;;46.75;24.95;;;7.40;99.90;;;;;;4114293;28;20035;-68
2021/03/24 00:30:55;;;;;;;50.65;27.35;;;7.50;99.90;;;;;;4136804;28;20034;-68
2021/03/24 00:32:56;;;;;;;47.90;26.23;;;7.40;99.90;;;;;;4139769;28;20034;-69
2021/03/24 00:34:57;;;;;;;49.80;26.35;;;7.40;99.90;;;;;;4128629;28;20084;-68
2021/03/24 00:36:57;;;;;;;46.10;25.95;;;7.40;99.90;;;;;;4141981;28;20088;-68
2021/03/24 00:38:58;;;;;;;43.03;24.90;;;7.40;99.90;;;;;;4114363;28;20034;-68
2021/03/24 00:40:59;;;;;;;43.60;25.25;;;7.40;99.90;;;;;;4136893;28;20083;-68
2021/03/24 00:43:00;;;;;;;43.00;22.92;;;7.40;99.90;;;;;;4116349;28;20031;-68
2021/03/24 00:45:00;;;;;;;40.83;22.52;;;7.40;99.90;;;;;;4134208;28;20049;-69
2021/03/24 00:47:01;;;;;;;39.00;21.92;;;7.40;99.90;;;;;;4102472;28;20494;-68
2021/03/24 00:49:02;;;;;;;40.60;23.00;;;7.40;99.90;;;;;;4130932;28;20390;-68
2021/03/24 00:51:05;;;;;;;41.67;23.25;;;7.50;99.90;;;;;;4137710;28;20653;-68
2021/03/24 00:53:06;;;;;;;40.83;21.60;;;7.40;99.90;;;;;;4138284;28;20030;-68
2021/03/24 00:55:07;;;;;;;37.00;22.05;;;7.40;99.90;;;;;;4129607;28;20140;-69
2021/03/24 00:57:08;;;;;;;39.75;22.67;;;7.40;99.90;;;;;;4131098;28;20062;-68
2021/03/24 00:59:08;;;;;;;41.15;22.73;;;7.30;99.90;;;;;;4129904;28;20030;-68
2021/03/24 01:01:09;;;;;;;37.60;21.05;;;7.40;99.90;;;;;;4138290;28;20034;-68
2021/03/24 01:03:11;;;;;;;37.58;22.83;;;7.40;99.90;;;;;;4141244;28;20034;-69
2021/03/24 01:05:14;;;;;;;40.72;22.77;;;7.40;99.90;;;;;;4134011;28;20046;-68
2021/03/24 01:07:16;;;;;;;41.88;22.55;;;7.40;99.90;;;;;;4110944;28;20059;-68
2021/03/24 01:09:17;;;;;;;42.80;23.00;;;7.40;99.90;;;;;;4129513;28;20046;-68
2021/03/24 01:11:17;;;;;;;39.60;21.45;;;7.30;99.90;;;;;;4137578;28;20046;-68
2021/03/24 01:13:18;;;;;;;38.72;21.30;;;7.30;99.90;;;;;;4142043;28;20034;-69
2021/03/24 01:15:19;;;;;;;41.83;23.55;;;7.30;99.90;;;;;;4133108;28;20030;-68
2021/03/24 01:17:20;;;;;;;40.05;22.23;;;7.30;99.90;;;;;;4125447;28;20038;-69
2021/03/24 01:19:20;;;;;;;40.50;22.17;;;7.30;99.90;;;;;;4121533;28;20054;-68
2021/03/24 01:21:21;;;;;;;38.13;20.45;;;7.30;99.90;;;;;;4142430;28;20634;-69
2021/03/24 01:23:22;;;;;;;34.13;19.90;;;7.30;99.90;;;;;;4144477;28;20034;-69
2021/03/24 01:25:23;;;;;;;32.42;19.88;;;7.30;99.90;;;;;;4131678;28;20060;-68
2021/03/24 01:27:24;;;;;;;36.97;19.73;;;7.30;99.90;;;;;;4143184;28;20030;-68
2021/03/24 01:29:25;;;;;;;38.63;20.58;;;7.30;99.90;;;;;;4138491;28;20415;-68
2021/03/24 01:31:30;;;;;;;35.25;19.38;;;7.30;99.90;;;;;;4134978;28;20041;-69
2021/03/24 01:33:31;;;;;;;36.60;19.35;;;7.30;99.90;;;;;;4135953;28;20038;-68
2021/03/24 01:35:32;;;;;;;34.88;20.65;;;7.20;99.90;;;;;;4116792;28;20038;-68
2021/03/24 01:37:33;;;;;;;35.25;19.70;;;7.30;99.90;;;;;;4135346;28;20054;-68
2021/03/24 01:39:34;;;;;;;39.30;20.30;;;7.20;99.90;;;;;;4127875;28;20034;-69
2021/03/24 01:41:34;;;;;;;37.60;20.48;;;7.20;99.90;;;;;;4102748;28;20035;-68
2021/03/24 01:43:36;;;;;;;36.13;21.95;;;7.20;99.90;;;;;;4114477;28;20047;-68
2021/03/24 01:45:37;;;;;;;38.58;21.98;;;7.20;99.90;;;;;;4123115;28;20042;-68
2021/03/24 01:47:38;;;;;;;35.17;20.48;;;7.20;99.90;;;;;;4135207;28;20400;-68
2021/03/24 01:49:39;;;;;;;35.75;21.50;;;7.20;99.90;;;;;;4119894;28;20598;-68
2021/03/24 01:51:44;;;;;;;34.38;20.63;;;7.20;99.90;;;;;;4117557;28;20052;-68
2021/03/24 01:53:48;;;;;;;34.53;19.65;;;7.20;99.90;;;;;;4127218;28;20038;-68
2021/03/24 01:55:48;;;;;;;36.08;21.25;;;7.20;99.90;;;;;;4120892;28;20497;-68
2021/03/24 01:57:49;;;;;;;33.47;20.00;;;7.20;99.90;;;;;;4144443;28;20030;-69
2021/03/24 01:59:53;;;;;;;34.67;19.30;;;7.10;99.90;;;;;;4106076;28;20035;-68
2021/03/24 02:01:55;;;;;;;35.85;19.83;;;7.10;99.90;;;;;;4122326;28;20071;-68
2021/03/24 02:03:56;;;;;;;34.50;18.70;;;7.10;99.90;;;;;;4125653;28;20037;-68
2021/03/24 02:05:58;;;;;;;35.20;20.67;;;7.10;99.90;;;;;;4119089;28;20396;-69
2021/03/24 02:08:19;;;;;;;31.58;18.70;;;7.10;99.90;;;;;;4125380;28;20125;-68
2021/03/24 02:10:34;;;;;;;34.38;19.92;;;7.10;99.90;;;;;;4114080;28;20039;-68
2021/03/24 02:12:42;;;;;;;33.92;19.67;;;7.10;99.90;;;;;;4138641;28;20033;-68
2021/03/24 02:15:03;;;;;;;31.80;19.05;;;7.00;99.90;;;;;;4121701;28;20034;-68
2021/03/24 02:17:06;;;;;;;32.03;19.30;;;7.00;99.90;;;;;;4093096;28;20489;-68
2021/03/24 02:19:28;;;;;;;33.28;18.70;;;7.00;99.90;;;;;;4142258;28;20375;-69
2021/03/24 02:21:36;;;;;;;35.00;19.70;;;7.00;99.90;;;;;;4110145;28;20039;-68
2021/03/24 02:23:40;;;;;;;38.45;21.63;;;6.90;99.90;;;;;;4128057;28;20101;-68
2021/03/24 02:25:51;;;;;;;34.67;20.00;;;7.00;99.90;;;;;;4114683;28;20042;-68
2021/03/24 02:27:55;;;;;;;36.13;19.98;;;6.90;99.90;;;;;;4104101;28;20664;-68
2021/03/24 02:30:25;;;;;;;34.70;20.20;;;7.00;99.90;;;;;;4141337;28;20105;-69
2021/03/24 02:32:28;;;;;;;36.88;21.10;;;6.90;99.90;;;;;;4140000;28;20054;-69
2021/03/24 02:34:31;;;;;;;37.70;20.95;;;6.90;99.90;;;;;;4143414;28;20120;-68
2021/03/24 02:36:40;;;;;;;38.80;21.42;;;6.90;99.90;;;;;;4134758;28;20041;-69
2021/03/24 02:38:43;;;;;;;39.10;22.15;;;6.90;99.90;;;;;;4141824;28;20493;-68
2021/03/24 02:40:45;;;;;;;42.25;23.00;;;6.90;99.90;;;;;;4134594;28;20030;-69
2021/03/24 02:42:49;;;;;;;38.83;22.92;;;6.80;99.90;;;;;;4134316;28;20391;-68
2021/03/24 02:44:50;;;;;;;44.70;23.33;;;6.80;99.90;;;;;;4138166;28;20506;-69
2021/03/24 02:46:53;;;;;;;42.53;23.63;;;6.80;99.90;;;;;;4112368;28;20047;-68
2021/03/24 02:48:57;;;;;;;45.60;24.27;;;6.80;99.90;;;;;;4142663;28;20041;-68
2021/03/24 02:51:00;;;;;;;42.65;23.35;;;6.70;99.90;;;;;;4134531;28;20554;-68
2021/03/24 02:53:06;;;;;;;47.05;24.50;;;6.70;99.90;;;;;;4135116;28;20556;-68
2021/03/24 02:55:10;;;;;;;41.23;24.13;;;6.70;99.90;;;;;;4134201;28;20379;-68
2021/03/24 02:57:11;;;;;;;44.70;24.85;;;6.60;99.90;;;;;;4131666;28;20272;-68
2021/03/24 02:59:13;;;;;;;42.08;23.77;;;6.60;99.90;;;;;;4143849;28;20133;-68
2021/03/24 03:01:17;;;;;;;44.72;25.25;;;6.60;99.90;;;;;;4136974;28;20061;-68
2021/03/24 03:03:26;;;;;;;42.10;24.02;;;6.60;99.90;;;;;;4130213;28;20038;-68
2021/03/24 03:05:33;;;;;;;41.30;23.45;;;6.60;99.90;;;;;;4111432;28;20109;-68
2021/03/24 03:07:39;;;;;;;43.17;24.38;;;6.60;99.90;;;;;;4135019;28;20037;-68
2021/03/24 03:09:43;;;;;;;43.53;23.63;;;6.50;99.90;;;;;;4126908;28;20054;-68
2021/03/24 03:11:59;;;;;;;38.30;22.60;;;6.60;99.90;;;;;;4116089;28;20125;-68
2021/03/24 03:14:20;;;;;;;38.22;22.83;;;6.60;99.90;;;;;;4115308;28;20492;-68
2021/03/24 03:16:43;;;;;;;39.70;23.60;;;6.60;99.90;;;;;;4110888;28;20144;-68
2021/03/24 03:18:55;;;;;;;38.45;22.80;;;6.60;99.90;;;;;;4142871;28;20034;-68
2021/03/24 03:21:00;;;;;;;39.40;23.33;;;6.60;99.90;;;;;;4123302;28;20038;-68
2021/03/24 03:23:20;;;;;;;37.92;21.98;;;6.60;99.90;;;;;;4117837;28;20049;-68
2021/03/24 03:25:27;;;;;;;39.28;22.02;;;6.60;99.90;;;;;;4131500;28;20449;-68
2021/03/24 03:27:30;;;;;;;40.65;21.35;;;6.60;99.90;;;;;;4139071;28;20041;-68
2021/03/24 03:29:31;;;;;;;37.83;22.23;;;6.60;99.90;;;;;;4112528;28;20050;-68
2021/03/24 03:31:36;;;;;;;37.50;22.48;;;6.60;99.90;;;;;;4133206;28;20030;-68
2021/03/24 03:33:39;;;;;;;38.70;22.10;;;6.60;99.90;;;;;;4124830;28;20034;-68
2021/03/24 03:35:40;;;;;;;41.70;24.42;;;6.60;99.90;;;;;;4134351;28;20462;-68
2021/03/24 03:37:42;;;;;;;40.70;23.70;;;6.60;99.90;;;;;;4134561;28;20040;-68
2021/03/24 03:39:45;;;;;;;36.53;22.33;;;6.60;99.90;;;;;;4136029;28;20681;-68
2021/03/24 03:41:47;;;;;;;42.25;23.55;;;6.60;99.90;;;;;;4140217;28;20092;-68
2021/03/24 03:43:52;;;;;;;38.42;23.50;;;6.60;99.90;;;;;;4117252;28;20118;-68
2021/03/24 03:45:56;;;;;;;39.58;22.83;;;6.50;99.90;;;;;;4121923;28;20041;-68
2021/03/24 03:47:57;;;;;;;41.67;23.15;;;6.50;99.90;;;;;;4137418;28;20038;-68
2021/03/24 03:49:58;;;;;;;47.78;25.23;;;6.50;99.90;;;;;;4134833;28;20027;-68
2021/03/24 03:52:23;;;;;;;45.08;24.80;;;6.40;99.90;;;;;;4129959;28;20061;-68
2021/03/24 03:54:35;;;;;;;44.75;23.30;;;6.40;99.90;;;;;;4133077;28;20027;-68
2021/03/24 03:57:01;;;;;;;39.20;23.83;;;6.40;99.90;;;;;;4130915;28;20413;-68
2021/03/24 03:59:11;;;;;;;40.17;23.23;;;6.40;99.90;;;;;;4112852;28;20053;-68
2021/03/24 04:01:20;;;;;;;46.08;23.88;;;6.30;99.90;;;;;;4119929;28;20030;-68
2021/03/24 04:03:30;;;;;;;37.40;22.02;;;6.30;99.90;;;;;;4117250;28;20470;-68
2021/03/24 04:05:43;;;;;;;42.83;26.13;;;6.40;99.90;;;;;;4110234;28;20033;-68
2021/03/24 04:07:46;;;;;;;;;;;6.40;99.90;;;;;;4137247;28;20142;-68
2021/03/24 04:09:47;;;;;;;;;;;6.30;99.90;;;;;;4156206;28;19963;-68
2021/03/24 04:11:53;;;;;;;36.33;21.50;;;6.30;99.90;;;;;;4144288;28;19949;-68
2021/03/24 04:13:56;;;;;;;40.28;23.88;;;6.40;99.90;;;;;;4134125;28;20034;-68
2021/03/24 04:16:00;;;;;;;42.15;24.23;;;6.40;99.90;;;;;;4137425;28;20490;-69
2021/03/24 04:18:09;;;;;;;37.53;23.15;;;6.40;99.90;;;;;;4142636;28;20045;-69
2021/03/24 04:20:12;;;;;;;37.67;22.70;;;6.40;99.90;;;;;;4124485;28;20130;-68
2021/03/24 04:22:15;;;;;;;;;;;6.40;99.90;;;;;;4121112;28;20042;-68
2021/03/24 04:24:37;;;;;;;44.15;24.60;;;6.40;99.90;;;;;;4119397;28;20309;-68
2021/03/24 04:26:44;;;;;;;43.30;24.00;;;6.30;99.90;;;;;;4142407;28;20026;-68
2021/03/24 04:28:48;;;;;;;43.50;24.83;;;6.20;99.90;;;;;;4134089;28;20038;-68
2021/03/24 04:30:54;;;;;;;43.95;24.92;;;6.20;99.90;;;;;;4126565;28;20041;-68
2021/03/24 04:32:55;;;;;;;42.38;24.65;;;6.10;99.90;;;;;;4140062;28;20049;-69
2021/03/24 04:34:55;;;;;;;45.67;25.05;;;6.10;99.90;;;;;;4119872;28;20034;-68
2021/03/24 04:37:23;;;;;;;41.53;23.33;;;6.10;99.90;;;;;;4139439;28;20524;-68
2021/03/24 04:39:39;;;;;;;41.45;22.48;;;6.10;99.90;;;;;;4136023;28;20498;-68
2021/03/24 04:41:45;;;;;;;45.08;25.75;;;6.10;99.90;;;;;;4134865;28;20115;-68
2021/03/24 04:43:51;;;;;;;41.28;23.92;;;6.10;99.90;;;;;;4136579;28;20039;-68
2021/03/24 04:46:05;;;;;;;42.63;23.90;;;6.10;99.90;;;;;;4145639;28;20030;-68
2021/03/24 04:48:36;;;;;;;42.75;23.80;;;6.00;99.90;;;;;;4123735;28;20464;-68
2021/03/24 04:50:42;;;;;;;41.22;24.38;;;6.00;99.90;;;;;;4128562;28;20042;-68
2021/03/24 04:52:44;;;;;;;44.30;24.38;;;6.00;99.90;;;;;;4138405;28;20367;-68
2021/03/24 04:54:46;;;;;;;44.03;25.13;;;6.00;99.90;;;;;;4138921;28;20133;-68
2021/03/24 04:56:52;;;;;;;;;;;6.00;99.90;;;;;;4145055;28;20025;-68
2021/03/24 04:58:55;;;;;;;42.83;23.90;;;6.00;99.90;;;;;;4131717;28;19917;-68
2021/03/24 05:01:02;;;;;;;39.70;23.60;;;6.00;99.90;;;;;;4127969;28;20034;-68
2021/03/24 05:03:09;;;;;;;41.28;23.02;;;6.00;99.90;;;;;;4124637;28;20062;-68
2021/03/24 05:05:24;;;;;;;43.63;24.50;;;6.00;99.90;;;;;;4099750;28;20023;-68
2021/03/24 05:07:50;;;;;;;40.42;23.45;;;6.10;99.90;;;;;;4134922;28;20054;-68
2021/03/24 05:09:51;;;;;;;41.00;24.10;;;6.10;99.90;;;;;;4076784;28;20043;-68
2021/03/24 05:12:04;;;;;;;35.85;22.80;;;6.00;99.90;;;;;;4130119;28;20116;-68
2021/03/24 05:14:23;;;;;;;42.85;24.73;;;6.10;99.90;;;;;;4132536;28;20045;-68
2021/03/24 05:16:44;;;;;;;43.28;24.25;;;6.00;99.90;;;;;;4129109;28;20038;-68
2021/03/24 05:18:55;;;;;;;42.55;24.42;;;6.00;99.90;;;;;;4144536;28;20104;-68
2021/03/24 05:21:21;;;;;;;42.17;22.67;;;6.00;99.90;;;;;;4136618;28;20545;-69
2021/03/24 05:23:23;;;;;;;39.08;22.77;;;6.00;99.90;;;;;;4122643;28;20034;-69
2021/03/24 05:25:35;;;;;;;37.90;22.83;;;5.90;99.90;;;;;;4121698;28;20113;-68
2021/03/24 05:27:42;;;;;;;40.33;23.52;;;5.90;99.90;;;;;;4126772;28;20121;-68
2021/03/24 05:29:48;;;;;;;46.75;23.23;;;5.90;99.90;;;;;;4140688;28;20034;-68
2021/03/24 05:31:53;;;;;;;45.85;24.65;;;5.90;99.90;;;;;;4144605;28;20042;-68
2021/03/24 05:34:01;;;;;;;40.45;23.05;;;5.80;99.90;;;;;;4139331;28;20037;-68
2021/03/24 05:36:05;;;;;;;41.05;24.50;;;5.80;99.90;;;;;;4132495;28;20038;-68
2021/03/24 05:38:18;;;;;;;45.33;24.92;;;5.80;99.90;;;;;;4140626;28;20046;-68
2021/03/24 05:40:25;;;;;;;44.53;24.25;;;5.80;99.90;;;;;;4141098;28;20121;-68
2021/03/24 05:42:52;;;;;;;44.42;24.45;;;5.70;99.90;;;;;;4139366;28;20029;-69
2021/03/24 05:45:37;;;;;;;44.90;24.85;;;5.70;99.90;;;;;;4130520;28;20030;-68
2021/03/24 05:47:55;;;;;;;40.63;23.90;;;5.70;99.90;;;;;;4057869;29;20490;-69
2021/03/24 05:50:22;;;;;;;47.58;26.55;;;5.60;99.90;;;;;;4120448;28;20166;-68
2021/03/24 05:52:44;;;;;;;49.30;26.98;;;5.60;99.90;;;;;;4136792;28;20029;-68
2021/03/24 05:55:19;;;;;;;50.92;27.23;;;5.60;99.90;;;;;;4137600;28;20426;-68
2021/03/24 05:57:32;;;;;;;56.53;31.08;;;5.60;99.90;;;;;;4121808;28;20061;-68
2021/03/24 05:59:49;;;;;;;52.38;28.23;;;5.60;99.90;;;;;;4137104;28;20725;-69
2021/03/24 06:01:57;;;;;;;51.20;29.02;;;5.60;99.90;;;;;;4136222;28;20052;-68
2021/03/24 06:04:15;;;;;;;52.00;29.67;;;5.60;99.90;;;;;;4140448;28;20068;-68
2021/03/24 06:06:37;;;;;;;51.30;28.30;;;5.60;99.90;;;;;;4127419;28;20061;-68
2021/03/24 06:09:08;;;;;;;51.60;29.92;;;5.60;99.90;;;;;;4122681;28;20150;-68
2021/03/24 06:11:30;;;;;;;49.00;29.10;;;5.60;99.90;;;;;;4121720;28;20029;-68
2021/03/24 06:13:45;;;;;;;61.00;30.67;;;5.60;99.90;;;;;;4137909;28;20034;-68
2021/03/24 06:16:24;;;;;;;50.63;29.98;;;5.60;99.90;;;;;;4138652;28;20117;-68
2021/03/24 06:18:44;;;;;;;52.30;29.98;;;5.70;99.90;;;;;;4137724;28;20046;-68
2021/03/24 06:21:02;;;;;;;49.80;28.52;;;5.70;99.90;;;;;;4140635;28;20132;-69
2021/03/24 06:23:23;;;;;;;53.97;31.17;;;5.70;99.90;;;;;;4126808;28;20038;-68
2021/03/24 06:25:54;;;;;;;50.50;28.50;;;5.70;99.90;;;;;;4118643;28;20045;-69
2021/03/24 06:28:44;;;;;;;51.28;30.77;;;5.70;99.90;;;;;;4139256;28;20037;-70
2021/03/24 06:31:09;;;;;;;53.05;30.67;;;5.70;99.90;;;;;;4024984;29;20037;-71
2021/03/24 06:33:34;;;;;;;50.10;30.15;;;5.70;99.90;;;;;;4104131;28;20392;-71
2021/03/24 06:36:04;;;;;;;59.92;31.27;;;5.70;99.90;;;;;;4120009;28;20030;-70
2021/03/24 06:38:28;;;;;;;52.35;29.42;;;5.70;99.90;;;;;;4113186;28;20066;-71
2021/03/24 06:40:42;;;;;;;52.15;29.05;;;5.80;99.90;;;;;;4142441;28;20543;-71
2021/03/24 06:43:26;;;;;;;60.40;28.85;;;5.80;99.90;;;;;;4128513;28;20041;-71
2021/03/24 06:45:38;;;;;;;48.05;27.63;;;5.80;99.90;;;;;;4141552;28;20046;-71
2021/03/24 06:48:01;;;;;;;44.85;26.30;;;5.80;99.90;;;;;;4126102;28;20050;-71
2021/03/24 06:50:38;;;;;;;47.33;27.13;;;5.90;99.90;;;;;;4140373;28;20049;-71
2021/03/24 06:53:05;;;;;;;49.38;27.67;;;5.90;99.90;;;;;;4134509;28;20030;-71
2021/03/24 06:55:43;;;;;;;43.03;25.00;;;6.00;99.90;;;;;;4132080;28;20038;-71
2021/03/24 06:57:46;;;;;;;44.53;25.08;;;6.00;99.90;;;;;;4133673;28;20053;-71
2021/03/24 07:00:06;;;;;;;42.70;23.92;;;6.00;99.90;;;;;;4134660;28;20045;-70
2021/03/24 07:02:52;;;;;;;41.50;26.27;;;6.00;99.90;;;;;;4132401;28;20095;-71
2021/03/24 07:05:09;;;;;;;48.30;25.55;;;6.10;99.90;;;;;;4113501;28;20062;-71
2021/03/24 07:07:41;;;;;;;45.63;25.65;;;6.10;99.90;;;;;;4118303;28;20161;-71
2021/03/24 07:10:11;;;;;;;43.63;24.75;;;6.20;99.90;;;;;;4109544;28;20042;-71
2021/03/24 07:12:36;;;;;;;47.45;25.42;;;6.20;99.90;;;;;;4107132;28;20045;-71
2021/03/24 07:15:01;;;;;;;43.75;25.30;;;6.30;99.90;;;;;;4118524;28;20039;-71
2021/03/24 07:17:36;;;;;;;45.58;26.27;;;6.40;99.90;;;;;;4139344;28;20659;-71
2021/03/24 07:19:56;;;;;;;49.17;26.48;;;6.40;99.90;;;;;;4138505;28;20034;-71
2021/03/24 07:22:19;;;;;;;47.92;25.60;;;6.50;99.90;;;;;;4122971;28;20038;-70
2021/03/24 07:24:20;;;;;;;48.17;26.33;;;6.60;99.90;;;;;;4116806;28;20045;-71
2021/03/24 07:26:52;;;;;;;41.70;24.02;;;6.60;99.90;;;;;;4135418;28;20070;-71
2021/03/24 07:29:29;;;;;;;50.38;27.38;;;6.70;99.90;;;;;;4136569;28;20044;-71
2021/03/24 07:31:39;;;;;;;54.17;26.30;;;6.80;99.90;;;;;;4136343;28;20045;-71
2021/03/24 07:34:06;;;;;;;45.33;25.42;;;6.80;99.90;;;;;;4134652;28;20042;-71
2021/03/24 07:36:19;;;;;;;43.20;24.70;;;6.90;99.90;;;;;;4120978;28;20039;-71
2021/03/24 07:38:47;;;;;;;50.67;26.55;;;7.00;99.90;;;;;;4113968;28;20404;-71
2021/03/24 07:41:14;;;;;;;45.85;24.50;;;7.10;99.90;;;;;;4129399;28;20045;-71
2021/03/24 07:43:42;;;;;;;45.75;25.63;;;7.10;99.90;;;;;;4126967;28;20034;-71
2021/03/24 07:45:49;;;;;;;47.35;25.13;;;7.20;99.90;;;;;;4124276;28;20089;-71
2021/03/24 07:47:58;;;;;;;44.88;25.20;;;7.30;99.90;;;;;;4139578;28;20041;-71
2021/03/24 07:50:04;;;;;;;47.08;25.17;;;7.40;99.90;;;;;;4137262;28;20046;-71
2021/03/24 07:52:33;;;;;;;51.33;26.13;;;7.40;99.90;;;;;;4115995;28;20062;-70
2021/03/24 07:54:52;;;;;;;45.05;25.27;;;7.50;99.90;;;;;;4133350;28;20522;-71
2021/03/24 07:57:19;;;;;;;43.00;24.33;;;7.60;99.90;;;;;;4135001;28;20044;-71
2021/03/24 07:59:35;;;;;;;38.28;22.23;;;7.70;99.90;;;;;;4119833;28;20040;-71
2021/03/24 08:02:01;;;;;;;43.22;24.13;;;7.90;99.90;;;;;;4138359;28;20135;-71
2021/03/24 08:04:27;;;;;;;38.33;22.73;;;8.10;99.90;;;;;;4133842;28;20053;-70
2021/03/24 08:06:39;;;;;;;44.22;23.38;;;8.30;99.90;;;;;;4126633;28;20034;-71
2021/03/24 08:08:54;;;;;;;44.28;23.52;;;8.40;99.90;;;;;;4136116;28;20549;-71
2021/03/24 08:11:12;;;;;;;45.35;22.58;;;8.50;99.90;;;;;;4128921;28;20038;-71
2021/03/24 08:13:12;;;;;;;36.30;21.27;;;8.70;99.90;;;;;;4138917;28;20113;-71
2021/03/24 08:15:31;;;;;;;41.05;23.92;;;8.90;99.90;;;;;;4131763;28;20035;-71
2021/03/24 08:17:41;;;;;;;43.75;24.13;;;9.00;99.90;;;;;;4142308;28;20026;-70
2021/03/24 08:20:06;;;;;;;38.63;23.55;;;9.20;99.90;;;;;;4137466;28;20038;-71
2021/03/24 08:22:27;;;;;;;39.00;22.52;;;9.30;99.90;;;;;;4139557;28;20033;-71
2021/03/24 08:24:28;;;;;;;43.13;22.95;;;9.40;99.90;;;;;;4144391;28;20030;-71
2021/03/24 08:26:37;;;;;;;39.42;22.38;;;9.60;99.90;;;;;;4144382;28;20036;-71
2021/03/24 08:28:48;;;;;;;47.58;25.85;;;9.70;99.90;;;;;;4140716;28;20112;-70
2021/03/24 08:31:02;;;;;;;42.85;24.38;;;9.90;99.90;;;;;;4121507;28;20059;-71
2021/03/24 08:33:21;;;;;;;41.30;23.52;;;10.00;99.90;;;;;;4120491;28;20042;-70
2021/03/24 08:35:51;;;;;;;46.50;25.52;;;10.20;99.90;;;;;;4124262;28;20046;-69
2021/03/24 08:38:16;;;;;;;48.78;24.95;;;10.30;99.90;;;;;;4080973;29;20035;-70
2021/03/24 08:40:31;;;;;;;45.17;25.02;;;10.50;99.90;;;;;;4127092;28;20070;-70
2021/03/24 08:43:09;;;;;;;43.03;24.95;;;10.60;99.90;;;;;;4110417;28;20052;-70
2021/03/24 08:45:23;;;;;;;36.65;22.95;;;10.70;99.90;;;;;;4122528;28;20034;-70
2021/03/24 08:47:32;;;;;;;44.33;25.38;;;10.80;99.90;;;;;;4134755;28;20034;-70
2021/03/24 08:49:35;;;;;;;45.13;25.10;;;11.00;99.90;;;;;;4141854;28;20049;-70
2021/03/24 08:51:54;;;;;;;48.65;27.20;;;11.10;99.90;;;;;;4132984;28;20050;-70
2021/03/24 08:54:18;;;;;;;45.83;25.63;;;11.20;99.90;;;;;;4139809;28;20077;-70
2021/03/24 08:57:06;;;;;;;50.10;27.73;;;11.30;99.90;;;;;;4093820;28;20125;-70
2021/03/24 08:59:35;;;;;;;51.47;26.85;;;11.40;99.90;;;;;;4071318;29;20393;-70
2021/03/24 09:02:00;;;;;;;53.92;27.50;;;11.60;99.90;;;;;;4126142;28;20046;-72
2021/03/24 09:04:06;;;;;;;51.78;27.13;;;11.60;99.90;;;;;;4142055;28;20505;-70
2021/03/24 09:06:16;;;;;;;47.90;27.70;;;11.70;99.90;;;;;;4135001;28;20058;-70
2021/03/24 09:08:41;;;;;;;45.22;26.63;;;11.80;99.90;;;;;;4142424;28;20898;-70
2021/03/24 09:11:23;;;;;;;47.15;25.75;;;11.90;99.90;;;;;;4144223;28;20081;-70
2021/03/24 09:13:31;;;;;;;47.33;27.98;;;12.00;99.90;;;;;;4137452;28;20109;-70
2021/03/24 09:15:45;;;;;;;49.17;27.80;;;12.10;99.90;;;;;;4121166;28;20038;-69
2021/03/24 09:18:21;;;;;;;49.85;24.92;;;12.20;99.90;;;;;;4140393;28;20045;-70
2021/03/24 09:20:49;;;;;;;50.83;28.20;;;12.30;99.90;;;;;;4140168;28;20041;-70
2021/03/24 09:23:12;;;;;;;48.70;25.77;;;12.40;99.90;;;;;;4138734;28;20088;-69
2021/03/24 09:25:25;;;;;;;46.85;26.05;;;12.50;99.90;;;;;;4131929;28;20386;-69
2021/03/24 09:28:03;;;;;;;45.65;25.42;;;12.70;99.90;;;;;;4140024;28;20048;-70
2021/03/24 09:30:31;;;;;;;47.08;25.63;;;12.70;99.90;;;;;;4098423;28;20108;-70
2021/03/24 09:32:35;;;;;;;53.50;28.25;;;12.80;99.90;;;;;;4140895;28;20517;-70
2021/03/24 09:34:54;;;;;;;48.13;26.65;;;12.90;99.90;;;;;;4126563;28;20121;-70
2021/03/24 09:37:02;;;;;;;40.92;24.50;;;12.90;99.90;;;;;;4124838;28;20044;-70
2021/03/24 09:39:28;;;;;;;48.10;27.63;;;13.00;99.90;;;;;;4114633;28;20572;-70
2021/03/24 09:41:48;;;;;;;45.70;25.63;;;13.10;99.90;;;;;;4122171;28;20548;-70
2021/03/24 09:44:01;;;;;;;42.08;24.50;;;13.20;99.90;;;;;;4137070;28;20360;-70
2021/03/24 09:46:08;;;;;;;49.88;27.70;;;13.20;99.90;;;;;;4139778;28;20026;-70
2021/03/24 09:48:09;;;;;;;47.33;26.08;;;13.30;99.90;;;;;;4143247;28;20033;-70
2021/03/24 09:50:24;;;;;;;46.40;25.08;;;13.40;99.90;;;;;;4126818;28;20445;-70
2021/03/24 09:52:44;;;;;;;44.97;24.63;;;13.40;99.90;;;;;;4125144;28;20061;-70
2021/03/24 09:55:03;;;;;;;45.55;26.63;;;13.50;99.90;;;;;;4129124;28;20043;-70
2021/03/24 09:57:17;;;;;;;46.75;27.30;;;13.60;99.90;;;;;;4127951;28;20035;-70
2021/03/24 09:59:45;;;;;;;41.15;24.73;;;13.60;99.90;;;;;;4137413;28;20041;-70
2021/03/24 10:02:05;;;;;;;44.50;24.80;;;13.80;99.90;;;;;;4126009;28;20046;-70
2021/03/24 10:04:30;;;;;;;45.55;24.25;;;13.80;99.90;;;;;;4124503;28;20064;-73
2021/03/24 10:06:52;;;;;;;45.05;23.63;;;13.90;99.90;;;;;;4142737;28;20038;-69
2021/03/24 10:09:22;;;;;;;41.00;24.17;;;13.90;99.90;;;;;;4139253;28;20050;-69
2021/03/24 10:11:29;;;;;;;45.10;24.02;;;14.00;99.90;;;;;;4080171;28;20034;-72
2021/03/24 10:13:35;;;;;;;44.03;24.55;;;14.10;99.90;;;;;;4119714;28;20748;-70
2021/03/24 10:15:41;;;;;;;38.75;22.20;;;14.10;99.90;;;;;;4142080;28;20132;-70
2021/03/24 10:17:47;;;;;;;41.95;22.70;;;14.30;99.90;;;;;;4141010;28;20052;-70
2021/03/24 10:19:57;;;;;;;43.15;23.77;;;14.40;99.90;;;;;;4139642;28;20139;-70
2021/03/24 10:22:11;;;;;;;46.58;25.70;;;14.40;99.90;;;;;;4129423;28;20034;-70
2021/03/24 10:24:23;;;;;;;43.38;23.23;;;14.40;99.90;;;;;;4143229;28;20057;-70
2021/03/24 10:26:50;;;;;;;39.95;22.63;;;14.50;99.90;;;;;;4143346;28;20038;-70
2021/03/24 10:28:55;;;;;;;35.58;21.85;;;14.50;99.90;;;;;;4116052;28;20053;-70
2021/03/24 10:30:58;;;;;;;39.78;22.08;;;14.60;99.90;;;;;;4125758;28;20030;-70
2021/03/24 10:33:31;;;;;;;37.35;22.42;;;14.70;99.90;;;;;;4106320;28;20051;-70
2021/03/24 10:35:45;;;;;;;46.45;25.50;;;14.80;99.90;;;;;;4124082;28;20054;-70
2021/03/24 10:38:10;;;;;;;45.92;24.15;;;14.70;99.90;;;;;;4099427;28;20035;-69
2021/03/24 10:40:20;;;;;;;44.67;24.98;;;14.70;99.90;;;;;;4137468;28;20046;-70
2021/03/24 10:42:50;;;;;;;40.53;23.83;;;14.70;99.90;;;;;;4141447;28;20042;-70
2021/03/24 10:45:20;;;;;;;36.58;22.13;;;14.70;99.90;;;;;;4138242;28;20061;-70
2021/03/24 10:47:47;;;;;;;38.67;23.02;;;14.70;99.90;;;;;;4119124;28;20058;-69
2021/03/24 10:50:09;;;;;;;41.97;23.15;;;14.80;99.90;;;;;;4135623;28;20034;-70
2021/03/24 10:52:20;;;;;;;41.45;22.83;;;14.80;99.90;;;;;;4135055;28;20595;-69
2021/03/24 10:54:32;;;;;;;41.67;24.02;;;14.80;99.90;;;;;;4115105;28;20133;-70
2021/03/24 10:57:03;;;;;;;49.60;26.27;;;14.90;99.90;;;;;;4134249;28;20041;-69
2021/03/24 10:59:36;;;;;;;40.60;22.88;;;14.90;99.90;;;;;;4128796;28;20116;-70
2021/03/24 11:01:45;;;;;;;43.40;23.73;;;15.00;99.90;;;;;;4124548;28;20112;-69
2021/03/24 11:03:49;;;;;;;41.88;21.95;;;15.00;99.90;;;;;;4141440;28;20037;-69
2021/03/24 11:05:56;;;;;;;40.95;21.23;;;15.10;99.90;;;;;;4130786;28;20383;-69
2021/03/24 11:08:19;;;;;;;40.92;22.42;;;15.10;99.90;;;;;;4131921;28;20043;-69
2021/03/24 11:10:38;;;;;;;45.70;24.27;;;15.20;99.90;;;;;;4129767;28;20056;-69
2021/03/24 11:12:44;;;;;;;39.22;21.60;;;15.20;99.90;;;;;;4139600;28;20049;-69
2021/03/24 11:15:01;;;;;;;41.40;22.27;;;15.30;99.90;;;;;;4142176;28;20030;-69
2021/03/24 11:17:17;;;;;;;48.60;22.58;;;15.40;99.90;;;;;;4132706;28;20039;-69
2021/03/24 11:19:31;;;;;;;45.08;22.92;;;15.50;99.90;;;;;;4117812;28;20092;-69